Aviation Digital Data Service (ADDS)

Output produced by TAFs form (2053 UTC 27 March 2015)
found at http://www.aviationweather.gov/adds/tafs/
 
KDEN 271953Z 35005KT 10SM SCT100 SCT120 SCT220 19/M01 A3012 RMK AO2 SLP159 T01941006
KDEN 272008Z 2720/2824 01006KT P6SM FEW100 SCT200 
     FM272200 32007KT P6SM FEW100 SCT200 
     FM280200 15007KT P6SM FEW100 
     FM280400 21011KT P6SM SKC 
     FM281900 27012KT P6SM FEW100